Time;durP1;ratioP1;P1;durP2;ratioP2;P2;SDS_P1;SDS_P2;PMS_P1;PMS_P2;Temp;Humidity;BMP_temperature;BMP_pressure;BME280_temperature;BME280_humidity;BME280_pressure;Samples;Min_cycle;Max_cycle;Signal;HPM_P1;HPM_P2
2024/04/17 00:00:00;;;;;;;13.15;5.57;;;;;;;;;;11261508;25;20029;-62
2024/04/17 00:05:00;;;;;;;12.02;4.32;;;;;;;;;;11261459;25;20032;-62
2024/04/17 00:10:03;;;;;;;18.67;4.93;;;;;;;;;;11264811;25;20034;-62
2024/04/17 00:15:03;;;;;;;12.82;4.78;;;;;;;;;;11266938;25;20037;-63
2024/04/17 00:20:04;;;;;;;10.05;4.22;;;;;;;;;;11268031;25;20036;-63
2024/04/17 00:25:07;;;;;;;13.77;4.07;;;;;;;;;;11272073;25;20021;-63
2024/04/17 00:30:07;;;;;;;11.50;4.28;;;;;;;;;;11269523;25;20025;-63
2024/04/17 00:35:08;;;;;;;11.48;4.72;;;;;;;;;;11267901;25;20459;-63
2024/04/17 00:40:11;;;;;;;10.80;4.25;;;;;;;;;;11268333;25;20029;-63
2024/04/17 00:45:11;;;;;;;10.30;4.57;;;;;;;;;;11267440;25;20495;-63
2024/04/17 00:50:14;;;;;;;7.72;3.58;;;;;;;;;;11266463;25;20029;-63
2024/04/17 00:55:17;;;;;;;8.40;3.57;;;;;;;;;;11267832;25;20032;-62
2024/04/17 01:00:18;;;;;;;6.90;3.70;;;;;;;;;;11266302;25;20042;-62
2024/04/17 01:05:18;;;;;;;12.10;4.93;;;;;;;;;;11266491;25;20026;-63
2024/04/17 01:10:21;;;;;;;10.82;4.43;;;;;;;;;;11266138;25;20369;-63
2024/04/17 01:15:22;;;;;;;8.60;3.97;;;;;;;;;;11258420;25;20029;-64
2024/04/17 01:20:22;;;;;;;10.50;3.60;;;;;;;;;;11264657;25;20469;-62
2024/04/17 01:25:25;;;;;;;13.52;3.83;;;;;;;;;;11264041;25;20026;-62
2024/04/17 01:30:25;;;;;;;13.17;4.07;;;;;;;;;;11262070;25;20025;-62
2024/04/17 01:35:26;;;;;;;11.63;4.10;;;;;;;;;;11265964;25;20025;-63
2024/04/17 01:40:28;;;;;;;18.63;5.90;;;;;;;;;;11265533;25;20034;-62
2024/04/17 01:45:29;;;;;;;9.30;3.83;;;;;;;;;;11267643;25;20037;-62
2024/04/17 01:50:29;;;;;;;13.18;4.15;;;;;;;;;;11267223;25;20038;-62
2024/04/17 01:55:32;;;;;;;12.43;4.35;;;;;;;;;;11265322;25;20029;-62
2024/04/17 02:00:33;;;;;;;14.73;3.63;;;;;;;;;;11267412;25;20040;-62
2024/04/17 02:05:33;;;;;;;11.75;3.80;;;;;;;;;;11256002;25;20404;-62
2024/04/17 02:10:36;;;;;;;12.98;5.05;;;;;;;;;;11221374;25;20029;-62
2024/04/17 02:15:36;;;;;;;11.95;4.60;;;;;;;;;;11256781;25;20025;-63
2024/04/17 02:20:36;;;;;;;6.80;3.15;;;;;;;;;;11263686;25;20360;-62
2024/04/17 02:25:39;;;;;;;11.70;3.95;;;;;;;;;;11258049;25;20021;-63
2024/04/17 02:30:39;;;;;;;15.45;4.45;;;;;;;;;;11258233;25;20025;-63
2024/04/17 02:35:40;;;;;;;9.60;3.28;;;;;;;;;;11258382;25;20036;-63
2024/04/17 02:40:42;;;;;;;8.98;3.45;;;;;;;;;;11263352;25;20030;-63
2024/04/17 02:45:43;;;;;;;8.95;3.90;;;;;;;;;;11262737;25;20241;-63
2024/04/17 02:50:43;;;;;;;9.23;3.53;;;;;;;;;;11264153;25;20064;-62
2024/04/17 02:55:46;;;;;;;10.13;5.13;;;;;;;;;;11279342;25;20037;-63
2024/04/17 03:00:46;;;;;;;13.77;3.97;;;;;;;;;;11261692;25;20041;-62
2024/04/17 03:05:46;;;;;;;10.57;4.70;;;;;;;;;;11269891;25;20352;-62
2024/04/17 03:10:49;;;;;;;13.82;4.93;;;;;;;;;;11257615;25;20033;-63
2024/04/17 03:15:50;;;;;;;11.57;4.00;;;;;;;;;;11258468;25;20025;-62
2024/04/17 03:20:50;;;;;;;9.95;4.63;;;;;;;;;;11257631;25;20026;-63
2024/04/17 03:25:58;;;;;;;14.85;4.40;;;;;;;;;;11256685;25;20473;-63
2024/04/17 03:31:01;;;;;;;11.80;4.93;;;;;;;;;;11228576;25;20368;-62
2024/04/17 03:36:01;;;;;;;9.43;4.40;;;;;;;;;;11262393;25;20364;-62
2024/04/17 03:41:04;;;;;;;11.50;3.83;;;;;;;;;;11260885;25;20026;-63
2024/04/17 03:46:05;;;;;;;19.05;5.07;;;;;;;;;;11260979;25;20030;-62
2024/04/17 03:51:05;;;;;;;11.95;4.78;;;;;;;;;;11256700;25;20022;-63
2024/04/17 03:56:09;;;;;;;14.57;4.50;;;;;;;;;;11259710;25;20026;-63
2024/04/17 04:01:09;;;;;;;17.47;5.57;;;;;;;;;;11260868;25;20045;-62
2024/04/17 04:06:09;;;;;;;19.58;5.47;;;;;;;;;;11261550;25;20025;-62
2024/04/17 04:11:12;;;;;;;11.65;4.78;;;;;;;;;;11266298;25;20029;-62
2024/04/17 04:16:13;;;;;;;13.57;4.95;;;;;;;;;;11260334;25;20021;-62
2024/04/17 04:21:13;;;;;;;15.82;5.65;;;;;;;;;;11250860;25;20482;-62
2024/04/17 04:26:16;;;;;;;12.65;4.97;;;;;;;;;;11260860;25;20025;-62
2024/04/17 04:31:16;;;;;;;12.95;4.22;;;;;;;;;;11265484;25;20029;-62
2024/04/17 04:36:16;;;;;;;14.50;5.20;;;;;;;;;;11263517;25;20495;-62
2024/04/17 04:41:19;;;;;;;12.55;4.50;;;;;;;;;;11253955;25;20021;-62
2024/04/17 04:46:20;;;;;;;14.85;4.63;;;;;;;;;;11248093;25;20422;-63
2024/04/17 04:51:21;;;;;;;18.75;5.43;;;;;;;;;;11258954;25;20502;-63
2024/04/17 04:56:25;;;;;;;22.10;4.78;;;;;;;;;;11243696;25;19998;-62
2024/04/17 05:01:26;;;;;;;11.20;4.75;;;;;;;;;;11253058;25;20030;-62
2024/04/17 05:06:27;;;;;;;18.98;5.72;;;;;;;;;;11285837;25;20021;-63
2024/04/17 05:11:30;;;;;;;14.65;5.15;;;;;;;;;;11275835;25;20029;-62
2024/04/17 05:16:30;;;;;;;15.35;5.88;;;;;;;;;;11265202;25;20025;-63
2024/04/17 05:21:30;;;;;;;18.60;6.10;;;;;;;;;;11264168;25;20041;-62
2024/04/17 05:26:35;;;;;;;15.68;5.75;;;;;;;;;;11265169;25;20371;-62
2024/04/17 05:31:35;;;;;;;22.63;6.53;;;;;;;;;;11260212;25;20025;-62
2024/04/17 05:36:36;;;;;;;16.63;6.53;;;;;;;;;;11267519;25;20044;-62
2024/04/17 05:41:39;;;;;;;12.90;5.78;;;;;;;;;;11261307;25;20476;-61
2024/04/17 05:46:39;;;;;;;17.08;4.70;;;;;;;;;;11266488;25;20022;-62
2024/04/17 05:51:40;;;;;;;11.77;4.45;;;;;;;;;;11266689;25;20029;-62
2024/04/17 12:17:52;;;;;;;6.05;3.83;;;;;;;;;;11049777;26;20346;-57
2024/04/17 12:22:52;;;;;;;6.63;3.95;;;;;;;;;;11048605;26;20489;-66
2024/04/17 12:27:53;;;;;;;11.02;4.97;;;;;;;;;;11035360;26;20031;-58
2024/04/17 12:32:56;;;;;;;4.65;3.65;;;;;;;;;;11039305;26;20039;-58
2024/04/17 12:37:56;;;;;;;6.53;4.78;;;;;;;;;;11044168;26;20030;-58
2024/04/17 12:42:57;;;;;;;9.48;5.78;;;;;;;;;;11050875;26;20039;-57
2024/04/17 12:48:00;;;;;;;13.95;5.15;;;;;;;;;;11049311;26;20031;-55
2024/04/17 12:53:04;;;;;;;5.03;3.97;;;;;;;;;;11032764;26;20043;-56
2024/04/17 12:58:05;;;;;;;12.38;7.90;;;;;;;;;;11042727;26;20031;-58
2024/04/17 13:03:08;;;;;;;5.95;4.10;;;;;;;;;;11035081;26;20025;-58
2024/04/17 13:08:08;;;;;;;6.60;5.05;;;;;;;;;;11040070;26;20038;-57
2024/04/17 13:13:09;;;;;;;4.85;3.88;;;;;;;;;;11032159;26;20007;-59
2024/04/17 13:18:12;;;;;;;7.63;4.43;;;;;;;;;;11004935;26;20014;-59
2024/04/17 13:23:12;;;;;;;6.43;4.32;;;;;;;;;;11005718;26;20031;-59
2024/04/17 13:28:16;;;;;;;4.78;4.28;;;;;;;;;;11014653;26;20028;-58
2024/04/17 13:33:19;;;;;;;5.43;4.90;;;;;;;;;;11011533;26;20031;-58
2024/04/17 13:38:19;;;;;;;5.22;3.70;;;;;;;;;;11016929;26;20036;-59
2024/04/17 13:43:19;;;;;;;6.65;4.78;;;;;;;;;;11013352;26;20040;-59
2024/04/17 13:48:22;;;;;;;5.80;5.15;;;;;;;;;;11016021;26;20032;-59
2024/04/17 13:53:23;;;;;;;9.63;6.72;;;;;;;;;;11011385;26;20477;-58
2024/04/17 13:58:23;;;;;;;6.78;5.32;;;;;;;;;;11013849;26;20040;-59
2024/04/17 14:03:27;;;;;;;5.45;4.95;;;;;;;;;;11012892;26;20035;-59
2024/04/17 14:08:28;;;;;;;5.82;4.90;;;;;;;;;;11007228;26;20036;-59
2024/04/17 14:13:28;;;;;;;5.75;4.45;;;;;;;;;;11006717;26;20027;-59
2024/04/17 14:18:31;;;;;;;4.97;3.80;;;;;;;;;;11007039;26;20031;-59
2024/04/17 14:23:32;;;;;;;5.28;2.90;;;;;;;;;;11009243;26;20028;-58
2024/04/17 14:28:32;;;;;;;7.00;3.20;;;;;;;;;;11008355;26;20031;-60
2024/04/17 14:33:36;;;;;;;3.42;3.13;;;;;;;;;;11011492;26;20381;-57
2024/04/17 14:38:38;;;;;;;3.80;3.37;;;;;;;;;;11009877;26;20040;-58
2024/04/17 14:43:39;;;;;;;12.63;4.45;;;;;;;;;;11013380;26;20285;-59
2024/04/17 14:48:42;;;;;;;5.30;2.75;;;;;;;;;;11009768;26;20476;-58
2024/04/17 14:53:43;;;;;;;5.25;3.28;;;;;;;;;;11009211;26;20039;-58
2024/04/17 14:58:43;;;;;;;6.32;3.97;;;;;;;;;;11007491;26;20455;-58
2024/04/17 15:03:46;;;;;;;3.75;3.25;;;;;;;;;;10986996;26;20039;-58
2024/04/17 15:08:47;;;;;;;4.17;3.40;;;;;;;;;;11013349;26;20032;-58
2024/04/17 15:13:48;;;;;;;4.50;3.60;;;;;;;;;;11030739;26;20039;-58
2024/04/17 15:18:51;;;;;;;5.78;3.55;;;;;;;;;;11011057;26;20485;-57
2024/04/17 15:23:51;;;;;;;4.03;3.63;;;;;;;;;;11003743;26;20465;-57
2024/04/17 15:28:51;;;;;;;3.40;3.10;;;;;;;;;;11002680;26;20027;-59
2024/04/17 15:33:55;;;;;;;6.47;3.47;;;;;;;;;;10993815;26;20047;-58
2024/04/17 15:38:56;;;;;;;3.33;3.03;;;;;;;;;;10996716;26;20492;-58
2024/04/17 15:43:59;;;;;;;3.42;2.80;;;;;;;;;;10987992;26;20031;-59
2024/04/17 15:49:02;;;;;;;4.65;3.53;;;;;;;;;;10986639;26;20051;-59
2024/04/17 15:54:02;;;;;;;3.80;3.38;;;;;;;;;;11002849;26;20476;-58
2024/04/17 15:59:03;;;;;;;3.50;3.20;;;;;;;;;;11002771;26;20031;-56
2024/04/17 16:04:06;;;;;;;8.20;5.25;;;;;;;;;;11005190;26;20043;-59
2024/04/17 16:09:06;;;;;;;7.47;4.28;;;;;;;;;;11001729;26;20032;-58
2024/04/17 16:14:07;;;;;;;4.68;4.28;;;;;;;;;;11004891;26;20027;-58
2024/04/17 16:19:12;;;;;;;3.75;3.30;;;;;;;;;;10993071;26;20508;-54
2024/04/17 16:24:13;;;;;;;2.90;2.10;;;;;;;;;;11001242;26;20086;-58
2024/04/17 16:29:13;;;;;;;2.20;2.08;;;;;;;;;;10998424;26;20476;-58
2024/04/17 16:34:17;;;;;;;3.58;3.28;;;;;;;;;;10994873;26;20040;-57
2024/04/17 16:39:17;;;;;;;4.75;4.07;;;;;;;;;;10999754;26;20074;-58
2024/04/17 16:44:18;;;;;;;3.13;2.83;;;;;;;;;;10998349;26;20465;-58
2024/04/17 16:49:21;;;;;;;2.67;2.47;;;;;;;;;;10994006;26;20470;-54
2024/04/17 16:54:22;;;;;;;4.80;3.75;;;;;;;;;;11004095;26;20043;-57
2024/04/17 16:59:22;;;;;;;32.63;19.58;;;;;;;;;;11001476;26;20198;-57
2024/04/17 17:04:25;;;;;;;6.82;5.63;;;;;;;;;;11010845;26;20055;-55
2024/04/17 17:09:26;;;;;;;5.18;4.68;;;;;;;;;;11006179;26;20040;-56
2024/04/17 17:14:27;;;;;;;2.33;1.60;;;;;;;;;;11007382;26;20496;-58
2024/04/17 17:19:31;;;;;;;3.03;2.03;;;;;;;;;;10992850;26;20043;-57
2024/04/17 17:24:34;;;;;;;2.75;2.55;;;;;;;;;;11007443;26;20043;-56
2024/04/17 17:29:35;;;;;;;1.90;1.80;;;;;;;;;;11004391;26;20031;-58
2024/04/17 17:34:38;;;;;;;2.00;1.55;;;;;;;;;;11006707;26;20028;-58
2024/04/17 17:39:39;;;;;;;2.58;2.38;;;;;;;;;;10993416;26;20044;-59
2024/04/17 17:44:42;;;;;;;2.75;2.22;;;;;;;;;;11001607;26;20031;-56
2024/04/17 17:49:47;;;;;;;3.00;2.70;;;;;;;;;;11007696;26;20028;-59
2024/04/17 17:54:47;;;;;;;1.80;1.63;;;;;;;;;;11008313;26;20031;-59
2024/04/17 17:59:48;;;;;;;3.25;2.60;;;;;;;;;;11003827;26;20040;-59
2024/04/17 18:04:51;;;;;;;5.13;4.63;;;;;;;;;;10996803;26;20123;-58
2024/04/17 18:09:52;;;;;;;4.72;4.32;;;;;;;;;;11003757;26;20490;-58
2024/04/17 18:14:52;;;;;;;2.58;2.38;;;;;;;;;;11007404;26;20018;-58
2024/04/17 18:19:58;;;;;;;3.05;2.75;;;;;;;;;;11008437;26;20044;-58
2024/04/17 18:24:58;;;;;;;3.10;2.80;;;;;;;;;;11009115;26;20129;-58
2024/04/17 18:29:59;;;;;;;1.95;1.85;;;;;;;;;;11007031;26;20027;-58
2024/04/17 18:35:02;;;;;;;3.38;1.50;;;;;;;;;;11002380;26;20040;-58
2024/04/17 18:40:06;;;;;;;1.63;1.53;;;;;;;;;;11010413;26;20031;-58
2024/04/17 18:45:07;;;;;;;2.05;1.20;;;;;;;;;;11012660;26;20481;-58
2024/04/17 18:50:10;;;;;;;2.40;1.50;;;;;;;;;;11009315;26;20476;-59
2024/04/17 18:55:10;;;;;;;1.65;1.55;;;;;;;;;;11007219;26;20031;-59
2024/04/17 19:00:12;;;;;;;2.40;2.20;;;;;;;;;;11007598;26;20032;-59
2024/04/17 19:05:15;;;;;;;2.63;2.42;;;;;;;;;;11011000;26;20031;-59
2024/04/17 19:10:15;;;;;;;1.85;1.63;;;;;;;;;;11002113;26;20434;-59
2024/04/17 19:15:16;;;;;;;2.25;1.80;;;;;;;;;;10995576;26;20043;-58
2024/04/17 19:20:19;;;;;;;1.95;1.73;;;;;;;;;;10997383;26;20036;-59
2024/04/17 19:25:19;;;;;;;2.85;2.03;;;;;;;;;;10973624;26;20024;-59
2024/04/17 19:30:19;;;;;;;9.05;5.25;;;;;;;;;;11002828;26;20035;-59
2024/04/17 19:35:23;;;;;;;6.40;4.18;;;;;;;;;;11002853;26;20036;-59
2024/04/17 19:40:23;;;;;;;2.78;2.38;;;;;;;;;;11002937;26;20027;-57
2024/04/17 19:45:23;;;;;;;1.73;1.45;;;;;;;;;;11006854;26;20028;-58
2024/04/17 19:50:26;;;;;;;2.67;1.75;;;;;;;;;;11004633;26;20044;-58
2024/04/17 19:55:27;;;;;;;2.17;1.98;;;;;;;;;;11007306;26;20512;-58
2024/04/17 20:00:27;;;;;;;1.85;1.52;;;;;;;;;;10994319;26;20035;-59
2024/04/17 20:05:30;;;;;;;1.63;1.52;;;;;;;;;;11009206;26;20027;-58
2024/04/17 20:10:30;;;;;;;6.15;5.63;;;;;;;;;;10996802;26;20027;-58
2024/04/17 20:15:36;;;;;;;2.78;2.53;;;;;;;;;;11002622;26;20055;-58
2024/04/17 20:20:39;;;;;;;3.28;2.97;;;;;;;;;;11023291;26;20039;-57
2024/04/17 20:25:40;;;;;;;1.90;1.80;;;;;;;;;;10999673;26;20027;-57
2024/04/17 20:30:40;;;;;;;1.98;1.50;;;;;;;;;;11005213;26;20040;-57
2024/04/17 20:35:43;;;;;;;2.40;2.20;;;;;;;;;;11006864;26;20500;-57
2024/04/17 20:40:44;;;;;;;1.60;1.45;;;;;;;;;;11016199;26;20099;-56
2024/04/17 20:45:44;;;;;;;4.22;2.17;;;;;;;;;;11010329;26;20384;-58
2024/04/17 20:50:47;;;;;;;2.25;1.95;;;;;;;;;;11011628;26;20031;-58
2024/04/17 20:55:54;;;;;;;5.35;4.40;;;;;;;;;;11012458;26;20477;-59
2024/04/17 21:01:01;;;;;;;2.83;2.58;;;;;;;;;;11014893;26;20048;-58
2024/04/17 21:06:07;;;;;;;3.05;2.42;;;;;;;;;;11014320;26;20031;-58
2024/04/17 21:11:09;;;;;;;3.35;2.50;;;;;;;;;;11016445;26;20023;-58
2024/04/17 21:16:11;;;;;;;3.97;3.10;;;;;;;;;;11015225;26;20040;-58
2024/04/17 21:21:16;;;;;;;5.03;3.50;;;;;;;;;;11015418;26;20035;-58
2024/04/17 21:26:17;;;;;;;2.43;2.23;;;;;;;;;;11009629;26;20045;-58
2024/04/17 21:31:17;;;;;;;3.70;3.28;;;;;;;;;;11009868;26;20031;-58
2024/04/17 21:36:20;;;;;;;2.55;2.35;;;;;;;;;;11013734;26;20031;-58
2024/04/17 21:41:21;;;;;;;4.30;2.88;;;;;;;;;;11013808;26;20366;-58
2024/04/17 21:46:21;;;;;;;3.25;2.95;;;;;;;;;;11015778;26;20039;-57
2024/04/17 21:51:24;;;;;;;3.13;2.50;;;;;;;;;;11014175;26;20039;-56
2024/04/17 21:56:25;;;;;;;3.97;2.67;;;;;;;;;;11013691;26;20371;-58
2024/04/17 22:01:29;;;;;;;3.35;3.05;;;;;;;;;;11008331;26;20352;-58
2024/04/17 22:06:32;;;;;;;2.95;2.75;;;;;;;;;;11007821;26;20472;-58
2024/04/17 22:11:32;;;;;;;3.10;2.90;;;;;;;;;;11010250;26;20024;-58
2024/04/17 22:16:33;;;;;;;3.40;3.10;;;;;;;;;;11008518;26;20052;-58
2024/04/17 22:21:36;;;;;;;3.83;3.40;;;;;;;;;;11010872;26;20026;-57
2024/04/17 22:26:36;;;;;;;3.58;3.20;;;;;;;;;;11008441;26;20028;-58
2024/04/17 22:31:36;;;;;;;4.32;3.22;;;;;;;;;;11013745;26;20044;-58
2024/04/17 22:36:39;;;;;;;3.80;3.50;;;;;;;;;;11013773;26;20031;-57
2024/04/17 22:41:39;;;;;;;4.00;3.70;;;;;;;;;;11013742;26;20051;-58
2024/04/17 22:46:40;;;;;;;4.03;3.72;;;;;;;;;;11012695;26;20031;-58
2024/04/17 22:51:43;;;;;;;3.67;3.38;;;;;;;;;;11008029;26;20031;-58
2024/04/17 22:56:44;;;;;;;4.03;3.72;;;;;;;;;;11011052;26;20035;-58
2024/04/17 23:01:45;;;;;;;5.15;3.45;;;;;;;;;;11009265;26;20044;-58
2024/04/17 23:06:48;;;;;;;4.03;3.63;;;;;;;;;;11010055;26;20490;-58
2024/04/17 23:11:48;;;;;;;3.97;3.58;;;;;;;;;;11008154;26;20031;-58
2024/04/17 23:16:48;;;;;;;4.40;4.03;;;;;;;;;;11008894;26;20036;-59
2024/04/17 23:21:51;;;;;;;9.02;4.18;;;;;;;;;;11010622;26;20040;-58
2024/04/17 23:26:51;;;;;;;3.75;3.45;;;;;;;;;;11011572;26;20023;-58
2024/04/17 23:31:51;;;;;;;4.05;3.65;;;;;;;;;;11013224;26;20492;-58
2024/04/17 23:36:54;;;;;;;4.28;3.88;;;;;;;;;;11009820;26;20027;-58
2024/04/17 23:41:55;;;;;;;4.97;4.53;;;;;;;;;;11014774;26;20376;-58
2024/04/17 23:46:55;;;;;;;5.28;4.80;;;;;;;;;;11011079;26;20472;-59
2024/04/17 23:51:58;;;;;;;7.00;6.30;;;;;;;;;;11012387;26;20039;-57
2024/04/17 23:56:58;;;;;;;5.25;4.80;;;;;;;;;;11011492;26;20382;-57
